createdAt,value
2023-03-28T00:02:17.168Z,8.68
2023-03-28T00:04:44.292Z,7.32
2023-03-28T00:07:11.983Z,7.57
2023-03-28T00:09:38.977Z,8.52
2023-03-28T00:12:06.304Z,7.25
2023-03-28T00:14:35.656Z,7.97
2023-03-28T00:17:02.645Z,7.32
2023-03-28T00:19:33.256Z,6.72
2023-03-28T00:22:00.614Z,8.10
2023-03-28T00:24:28.123Z,7.38
2023-03-28T00:26:55.099Z,7.40
2023-03-28T00:29:23.091Z,7.80
2023-03-28T00:31:51.639Z,7.40
2023-03-28T00:34:18.899Z,7.22
2023-03-28T00:36:45.935Z,6.00
2023-03-28T00:39:14.450Z,6.72
2023-03-28T00:41:44.195Z,7.22
2023-03-28T00:44:48.970Z,7.05
2023-03-28T00:47:28.041Z,6.38
2023-03-28T00:50:13.231Z,7.35
2023-03-28T00:52:47.549Z,7.05
2023-03-28T00:55:19.324Z,7.38
2023-03-28T00:57:49.112Z,7.50
2023-03-28T01:00:19.128Z,7.15
2023-03-28T01:02:53.591Z,6.95
2023-03-28T01:05:26.511Z,7.57
2023-03-28T01:07:59.312Z,6.68
2023-03-28T01:10:26.535Z,10.10
2023-03-28T01:12:56.390Z,6.95
2023-03-28T01:15:24.332Z,6.45
2023-03-28T01:18:03.083Z,6.97
2023-03-28T01:20:42.305Z,7.82
2023-03-28T01:23:33.984Z,8.23
2023-03-28T01:26:32.617Z,7.40
2023-03-28T01:29:27.697Z,7.07
2023-03-28T01:32:39.157Z,7.93
2023-03-28T01:35:24.997Z,7.60
2023-03-28T01:38:04.176Z,7.85
2023-03-28T01:41:11.628Z,7.25
2023-03-28T01:44:04.778Z,6.93
2023-03-28T01:46:44.559Z,7.65
2023-03-28T01:49:20.323Z,6.50
2023-03-28T01:52:02.482Z,8.02
2023-03-28T01:54:52.438Z,7.57
2023-03-28T01:57:26.625Z,7.03
2023-03-28T02:00:15.849Z,6.28
2023-03-28T02:03:05.909Z,7.28
2023-03-28T02:05:41.653Z,7.03
2023-03-28T02:08:14.336Z,7.72
2023-03-28T02:10:47.025Z,7.75
2023-03-28T02:13:56.250Z,7.50
2023-03-28T02:17:04.869Z,6.97
2023-03-28T02:19:55.554Z,6.00
2023-03-28T02:22:45.242Z,7.72
2023-03-28T02:25:36.656Z,6.72
2023-03-28T02:28:24.213Z,7.38
2023-03-28T02:31:11.562Z,6.40
2023-03-28T02:33:45.007Z,7.28
2023-03-28T02:36:34.379Z,7.63
2023-03-28T02:39:15.043Z,9.20
2023-03-28T02:42:03.344Z,8.13
2023-03-28T02:44:44.727Z,7.40
2023-03-28T02:47:29.992Z,7.32
2023-03-28T02:50:15.126Z,8.07
2023-03-28T02:52:52.550Z,8.73
2023-03-28T02:55:34.525Z,9.38
2023-03-28T02:59:24.606Z,7.93
2023-03-28T03:01:52.058Z,7.47
2023-03-28T03:04:19.331Z,8.25
2023-03-28T03:06:46.413Z,7.78
2023-03-28T03:09:13.396Z,8.43
2023-03-28T03:11:42.652Z,10.68
2023-03-28T03:14:09.735Z,7.10
2023-03-28T03:16:38.765Z,7.40
2023-03-28T03:19:07.759Z,8.85
2023-03-28T03:21:36.603Z,9.25
2023-03-28T03:24:04.322Z,9.77
2023-03-28T03:26:31.606Z,8.32
2023-03-28T03:29:01.710Z,7.85
2023-03-28T03:31:32.249Z,8.65
2023-03-28T03:34:02.232Z,7.60
2023-03-28T03:36:34.210Z,10.95
2023-03-28T03:39:01.699Z,13.20
2023-03-28T03:41:29.558Z,13.05
2023-03-28T03:43:56.522Z,11.20
2023-03-28T03:46:23.656Z,11.30
2023-03-28T03:48:52.057Z,12.70
2023-03-28T03:51:19.250Z,9.45
2023-03-28T03:53:50.878Z,12.13
2023-03-28T03:56:21.331Z,10.68
2023-03-28T03:59:00.501Z,9.70
2023-03-28T04:01:31.180Z,11.00
2023-03-28T04:04:24.512Z,9.75
2023-03-28T04:07:15.549Z,10.85
2023-03-28T04:09:43.410Z,9.13
2023-03-28T04:12:11.638Z,9.65
2023-03-28T04:14:45.940Z,8.45
2023-03-28T04:17:35.011Z,10.32
2023-03-28T04:20:17.548Z,10.73
2023-03-28T04:23:06.228Z,11.73
2023-03-28T04:25:34.961Z,8.65
2023-03-28T04:28:16.929Z,12.30
2023-03-28T04:31:00.275Z,12.30
2023-03-28T04:33:45.886Z,15.38
2023-03-28T04:36:18.767Z,12.07
2023-03-28T04:38:58.340Z,13.07
2023-03-28T04:41:46.280Z,15.05
2023-03-28T04:44:29.419Z,14.05
2023-03-28T04:47:03.484Z,10.82
2023-03-28T04:49:31.520Z,15.27
2023-03-28T04:51:58.557Z,14.85
2023-03-28T04:54:25.664Z,12.30
2023-03-28T04:57:08.259Z,16.20
2023-03-28T04:59:42.479Z,13.30
2023-03-28T05:02:11.711Z,14.43
2023-03-28T05:04:58.908Z,12.57
2023-03-28T05:07:26.424Z,13.15
2023-03-28T05:09:54.134Z,12.88
2023-03-28T05:12:21.380Z,14.32
2023-03-28T05:15:03.228Z,11.73
2023-03-28T05:17:31.342Z,12.38
2023-03-28T05:20:09.979Z,9.85
2023-03-28T05:22:47.498Z,9.50
2023-03-28T05:25:14.544Z,10.27
2023-03-28T05:27:41.937Z,9.80
2023-03-28T05:30:10.474Z,8.80
2023-03-28T05:32:38.918Z,9.27
2023-03-28T05:35:12.753Z,9.57
2023-03-28T05:37:41.817Z,9.32
2023-03-28T05:40:12.034Z,7.97
2023-03-28T05:42:41.536Z,9.27
2023-03-28T05:45:15.585Z,8.75
2023-03-28T05:48:06.329Z,10.27
2023-03-28T05:50:36.504Z,7.65
2023-03-28T05:53:06.934Z,8.18
2023-03-28T05:55:35.655Z,12.95
2023-03-28T05:58:04.472Z,10.32
2023-03-28T06:00:37.667Z,9.93
2023-03-28T06:03:07.889Z,10.68
2023-03-28T06:05:39.083Z,12.15
2023-03-28T06:08:18.257Z,11.23
2023-03-28T06:10:45.321Z,11.95
2023-03-28T06:13:34.772Z,14.07
2023-03-28T06:16:03.011Z,8.05
2023-03-28T06:18:33.349Z,9.07
2023-03-28T06:21:01.158Z,9.38
2023-03-28T06:23:28.780Z,10.75
2023-03-28T06:25:56.908Z,10.10
2023-03-28T06:28:25.561Z,10.55
2023-03-28T06:31:15.874Z,8.10
2023-03-28T06:33:44.481Z,8.00
2023-03-28T06:36:12.188Z,8.32
2023-03-28T06:38:39.261Z,8.32
2023-03-28T06:41:06.635Z,10.73
2023-03-28T06:43:35.807Z,8.30
2023-03-28T06:46:13.826Z,9.30
2023-03-28T06:48:44.548Z,10.57
2023-03-28T06:51:40.873Z,8.00
2023-03-28T06:54:07.829Z,7.35
2023-03-28T06:56:34.997Z,10.60
2023-03-28T06:59:02.070Z,7.75
2023-03-28T07:01:32.147Z,9.38
2023-03-28T07:04:09.661Z,7.38
2023-03-28T07:06:37.526Z,9.15
2023-03-28T07:09:06.345Z,10.23
2023-03-28T07:11:40.556Z,13.98
2023-03-28T07:14:07.579Z,10.52
2023-03-28T07:16:34.585Z,10.73
2023-03-28T07:19:01.566Z,8.50
2023-03-28T07:21:32.978Z,8.48
2023-03-28T07:24:02.638Z,8.50
2023-03-28T07:26:39.288Z,8.85
2023-03-28T07:29:08.871Z,10.90
2023-03-28T07:31:36.225Z,7.28
2023-03-28T07:34:03.447Z,6.75
2023-03-28T07:36:30.581Z,8.27
2023-03-28T07:39:06.725Z,6.72
2023-03-28T07:41:33.978Z,11.57
2023-03-28T07:44:01.191Z,7.72
2023-03-28T07:46:28.445Z,25.48
2023-03-28T07:48:56.908Z,13.15
2023-03-28T07:51:24.444Z,10.95
2023-03-28T07:53:51.926Z,10.60
2023-03-28T07:56:18.977Z,9.18
2023-03-28T07:59:10.469Z,13.38
2023-03-28T08:01:38.243Z,10.82
2023-03-28T08:04:05.360Z,10.30
2023-03-28T08:07:02.395Z,8.32
2023-03-28T08:09:29.416Z,8.18
2023-03-28T08:12:09.263Z,8.38
2023-03-28T08:14:36.249Z,13.32
2023-03-28T08:17:03.723Z,7.15
2023-03-28T08:19:33.451Z,6.70
2023-03-28T08:22:12.774Z,5.82
2023-03-28T08:24:57.157Z,7.65
2023-03-28T08:27:24.990Z,7.22
2023-03-28T08:29:58.217Z,8.88
2023-03-28T08:32:27.053Z,10.15
2023-03-28T08:34:57.821Z,7.50
2023-03-28T08:37:27.964Z,7.30
2023-03-28T08:39:56.070Z,7.28
2023-03-28T08:42:23.304Z,6.53
2023-03-28T08:45:16.525Z,10.25
2023-03-28T08:48:21.503Z,7.63
2023-03-28T08:51:06.971Z,6.75
2023-03-28T08:53:41.075Z,10.50
2023-03-28T08:56:09.033Z,10.90
2023-03-28T08:58:51.550Z,7.82
2023-03-28T09:01:22.314Z,6.63
2023-03-28T09:03:50.501Z,7.97
2023-03-28T09:06:29.625Z,7.93
2023-03-28T09:09:08.575Z,6.85
2023-03-28T09:12:02.586Z,6.55
2023-03-28T09:14:45.702Z,5.88
2023-03-28T09:17:31.408Z,5.85
2023-03-28T09:20:11.559Z,5.55
2023-03-28T09:23:24.730Z,8.15
2023-03-28T09:26:17.261Z,6.85
2023-03-28T09:29:10.453Z,9.50
2023-03-28T09:31:46.849Z,8.88
2023-03-28T09:34:27.776Z,9.95
2023-03-28T09:37:38.211Z,13.77
2023-03-28T09:40:19.469Z,12.30
2023-03-28T09:43:36.742Z,13.13
2023-03-28T09:46:30.428Z,10.13
2023-03-28T09:49:25.312Z,9.98
2023-03-28T09:52:23.928Z,12.60
2023-03-28T09:54:51.232Z,10.85
2023-03-28T09:57:18.228Z,13.23
2023-03-28T09:59:58.793Z,15.15
2023-03-28T10:02:33.982Z,12.13
2023-03-28T10:05:34.180Z,18.30
2023-03-28T10:08:40.372Z,13.77
2023-03-28T10:11:24.034Z,12.40
2023-03-28T10:13:53.350Z,13.73
2023-03-28T10:16:29.225Z,13.02
2023-03-28T10:19:14.134Z,10.98
2023-03-28T10:22:12.984Z,13.65
2023-03-28T10:24:48.057Z,16.85
2023-03-28T10:27:29.822Z,16.83
2023-03-28T10:29:58.870Z,17.20
2023-03-28T10:32:32.365Z,19.25
2023-03-28T10:35:30.261Z,16.55
2023-03-28T10:38:20.328Z,13.13
2023-03-28T10:41:27.724Z,11.77
2023-03-28T10:44:27.302Z,13.35
2023-03-28T10:47:16.541Z,13.32
2023-03-28T10:49:54.151Z,12.05
2023-03-28T10:52:33.946Z,10.80
2023-03-28T10:55:13.962Z,12.43
2023-03-28T10:58:15.813Z,13.25
2023-03-28T11:01:04.688Z,16.15
2023-03-28T11:03:46.892Z,12.57
2023-03-28T11:06:41.381Z,12.07
2023-03-28T11:09:22.461Z,15.07
2023-03-28T11:12:55.509Z,9.68
2023-03-28T11:15:44.725Z,9.30
2023-03-28T11:18:33.139Z,8.20
2023-03-28T11:21:27.059Z,14.95
2023-03-28T11:24:27.998Z,9.77
2023-03-28T11:27:16.072Z,9.68
2023-03-28T11:30:18.528Z,9.18
2023-03-28T11:33:11.346Z,8.18
2023-03-28T11:35:44.399Z,9.68
2023-03-28T11:38:37.074Z,10.25
2023-03-28T11:41:19.215Z,7.28
2023-03-28T11:44:22.095Z,7.20
2023-03-28T11:46:55.970Z,9.07
2023-03-28T11:49:46.010Z,8.88
2023-03-28T11:52:44.685Z,9.63
2023-03-28T11:55:19.054Z,9.43
2023-03-28T11:57:55.064Z,8.80
2023-03-28T12:00:49.040Z,7.57
2023-03-28T12:03:54.734Z,9.82
2023-03-28T12:06:32.983Z,12.88
2023-03-28T12:09:08.103Z,7.85
2023-03-28T12:11:43.195Z,7.68
2023-03-28T12:14:22.536Z,7.85
2023-03-28T12:16:53.364Z,9.45
2023-03-28T12:19:34.030Z,10.95
2023-03-28T12:22:16.354Z,11.23
2023-03-28T12:24:54.830Z,9.90
2023-03-28T12:27:39.018Z,7.55
2023-03-28T12:30:21.342Z,7.30
2023-03-28T12:33:05.440Z,9.13
2023-03-28T12:35:39.810Z,7.70
2023-03-28T12:38:34.230Z,8.38
2023-03-28T12:41:26.778Z,7.78
2023-03-28T12:43:59.585Z,10.85
2023-03-28T12:46:46.382Z,9.88
2023-03-28T12:49:19.013Z,8.50
2023-03-28T12:51:53.503Z,11.00
2023-03-28T12:54:31.965Z,9.40
2023-03-28T12:57:07.810Z,12.38
2023-03-28T13:00:07.900Z,11.23
2023-03-28T13:02:58.407Z,9.70
2023-03-28T13:05:38.750Z,9.95
2023-03-28T13:08:46.605Z,10.35
2023-03-28T13:11:20.209Z,9.63
2023-03-28T13:14:12.354Z,9.00
2023-03-28T13:17:01.643Z,9.18
2023-03-28T13:19:44.557Z,10.30
2023-03-28T13:22:33.434Z,10.95
2023-03-28T13:25:32.682Z,10.15
2023-03-28T13:28:11.763Z,10.35
2023-03-28T13:30:46.375Z,12.73
2023-03-28T13:33:24.289Z,16.00
2023-03-28T13:36:00.693Z,12.70
2023-03-28T13:38:27.911Z,10.95
2023-03-28T13:41:06.434Z,12.70
2023-03-28T13:43:35.867Z,11.65
2023-03-28T13:46:15.291Z,10.48
2023-03-28T13:49:10.436Z,11.50
2023-03-28T13:51:43.404Z,12.80
2023-03-28T13:54:11.928Z,11.52
2023-03-28T13:56:43.716Z,11.88
2023-03-28T13:59:22.056Z,12.98
2023-03-28T14:01:53.895Z,12.85
2023-03-28T14:04:26.663Z,11.00
2023-03-28T14:06:55.684Z,11.45
2023-03-28T14:09:28.961Z,13.50
2023-03-28T14:12:09.858Z,11.93
2023-03-28T14:14:42.788Z,10.77
2023-03-28T14:17:17.614Z,8.32
2023-03-28T14:19:53.230Z,9.35
2023-03-28T14:22:24.303Z,10.23
2023-03-28T14:24:54.292Z,9.25
2023-03-28T14:27:37.352Z,9.00
2023-03-28T14:30:16.658Z,8.27
2023-03-28T14:32:57.577Z,7.57
2023-03-28T14:35:28.557Z,7.55
2023-03-28T14:37:58.178Z,6.85
2023-03-28T14:40:25.055Z,6.47
2023-03-28T14:42:59.841Z,7.50
2023-03-28T14:45:28.675Z,8.00
2023-03-28T14:47:57.530Z,9.13
2023-03-28T14:50:29.642Z,5.28
2023-03-28T14:53:08.018Z,7.47
2023-03-28T14:55:37.735Z,6.82
2023-03-28T14:58:12.878Z,5.93
2023-03-28T15:00:48.707Z,7.72
2023-03-28T15:03:19.068Z,7.03
2023-03-28T15:05:49.958Z,6.55
2023-03-28T15:08:31.691Z,7.00
2023-03-28T15:11:06.572Z,5.32
2023-03-28T15:13:38.949Z,7.85
2023-03-28T15:16:08.268Z,7.68
2023-03-28T15:18:47.244Z,5.35
2023-03-28T15:21:15.341Z,4.88
2023-03-28T15:23:59.577Z,5.75
2023-03-28T15:26:51.224Z,5.80
2023-03-28T15:29:21.765Z,5.45
2023-03-28T15:31:49.109Z,4.55
2023-03-28T15:34:26.390Z,4.00
2023-03-28T15:37:06.982Z,3.78
2023-03-28T15:39:36.107Z,4.57
2023-03-28T15:42:24.404Z,5.13
2023-03-28T15:44:57.076Z,5.45
2023-03-28T15:47:27.183Z,5.93
2023-03-28T15:50:12.848Z,4.95
2023-03-28T15:52:42.767Z,6.35
2023-03-28T15:55:20.846Z,8.07
2023-03-28T15:57:48.383Z,4.50
2023-03-28T16:00:46.462Z,9.23
2023-03-28T16:05:50.621Z,5.93
2023-03-28T16:08:25.736Z,6.63
2023-03-28T16:10:52.721Z,6.68
2023-03-28T16:13:40.122Z,13.98
2023-03-28T16:16:08.123Z,6.80
2023-03-28T16:18:48.234Z,6.65
2023-03-28T16:21:16.275Z,8.65
2023-03-28T16:23:43.360Z,6.50
2023-03-28T16:26:11.304Z,12.80
2023-03-28T16:28:38.412Z,8.07
2023-03-28T16:31:05.865Z,7.07
2023-03-28T16:33:32.863Z,6.45
2023-03-28T16:36:00.386Z,6.40
2023-03-28T16:38:27.946Z,9.27
2023-03-28T16:40:54.994Z,7.00
2023-03-28T16:43:21.937Z,8.90
2023-03-28T16:45:50.294Z,10.38
2023-03-28T16:48:17.466Z,8.15
2023-03-28T16:50:59.408Z,9.98
2023-03-28T16:53:26.416Z,10.00
2023-03-28T16:55:53.491Z,8.25
2023-03-28T16:58:20.550Z,10.23
2023-03-28T17:00:50.791Z,6.82
2023-03-28T17:03:18.210Z,9.70
2023-03-28T17:05:45.385Z,5.70
2023-03-28T17:08:12.462Z,6.50
2023-03-28T17:10:43.566Z,6.57
2023-03-28T17:13:11.273Z,7.38
2023-03-28T17:15:38.328Z,9.88
2023-03-28T17:18:08.180Z,7.07
2023-03-28T17:20:35.554Z,7.63
2023-03-28T17:23:04.913Z,7.25
2023-03-28T17:25:36.788Z,7.03
2023-03-28T17:28:08.917Z,7.40
2023-03-28T17:30:37.324Z,8.02
2023-03-28T17:33:04.941Z,7.22
2023-03-28T17:35:32.187Z,9.13
2023-03-28T17:37:59.231Z,7.97
2023-03-28T17:40:26.587Z,9.63
2023-03-28T17:42:53.694Z,7.72
2023-03-28T17:45:21.155Z,7.57
2023-03-28T17:47:48.737Z,8.25
2023-03-28T17:50:15.820Z,7.57
2023-03-28T17:52:42.884Z,7.45
2023-03-28T17:55:09.967Z,10.57
2023-03-28T17:57:37.161Z,8.45
2023-03-28T18:00:06.736Z,8.95
2023-03-28T18:02:45.956Z,9.10
2023-03-28T18:05:33.570Z,7.15
2023-03-28T18:08:01.059Z,7.80
2023-03-28T18:10:28.058Z,8.30
2023-03-28T18:12:55.065Z,7.60
2023-03-28T18:15:22.033Z,8.85
2023-03-28T18:17:49.116Z,9.23
2023-03-28T18:20:16.339Z,11.25
2023-03-28T18:22:43.492Z,10.15
2023-03-28T18:25:10.799Z,13.73
2023-03-28T18:27:38.319Z,8.98
2023-03-28T18:30:08.431Z,7.75
2023-03-28T18:32:36.710Z,8.13
2023-03-28T18:35:07.289Z,9.35
2023-03-28T18:37:34.547Z,12.48
2023-03-28T18:40:01.847Z,10.20
2023-03-28T18:42:30.655Z,9.98
2023-03-28T18:44:57.999Z,8.63
2023-03-28T18:47:25.134Z,8.52
2023-03-28T18:49:52.439Z,8.07
2023-03-28T18:52:19.545Z,8.18
2023-03-28T18:54:48.179Z,7.63
2023-03-28T18:57:16.165Z,8.63
2023-03-28T18:59:43.197Z,8.13
2023-03-28T19:02:13.896Z,10.13
2023-03-28T19:04:40.949Z,8.25
2023-03-28T19:07:08.625Z,8.77
2023-03-28T19:09:36.026Z,10.60
2023-03-28T19:12:03.110Z,9.25
2023-03-28T19:14:30.663Z,11.57
2023-03-28T19:16:57.735Z,8.82
2023-03-28T19:19:25.042Z,8.68
2023-03-28T19:21:52.709Z,8.68
2023-03-28T19:24:23.542Z,9.30
2023-03-28T19:26:51.137Z,10.20
2023-03-28T19:29:18.132Z,8.63
2023-03-28T19:31:46.016Z,10.02
2023-03-28T19:34:17.646Z,8.68
2023-03-28T19:36:44.918Z,7.57
2023-03-28T19:39:12.598Z,9.98
2023-03-28T19:41:40.007Z,9.43
2023-03-28T19:44:07.192Z,9.00
2023-03-28T19:46:36.367Z,9.45
2023-03-28T19:49:06.573Z,9.80
2023-03-28T19:51:34.449Z,9.48
2023-03-28T19:54:01.632Z,12.00
2023-03-28T19:56:29.064Z,10.15
2023-03-28T19:58:56.229Z,30.75
2023-03-28T20:01:23.291Z,12.75
2023-03-28T20:03:53.243Z,12.85
2023-03-28T20:06:22.451Z,12.05
2023-03-28T20:08:50.810Z,12.20
2023-03-28T20:11:18.025Z,11.50
2023-03-28T20:13:45.206Z,11.68
2023-03-28T20:16:13.272Z,11.15
2023-03-28T20:18:41.080Z,11.02
2023-03-28T20:21:11.095Z,11.93
2023-03-28T20:23:38.355Z,12.80
2023-03-28T20:26:19.961Z,12.98
2023-03-28T20:28:49.970Z,11.55
2023-03-28T20:31:18.436Z,10.45
2023-03-28T20:33:46.293Z,11.50
2023-03-28T20:36:13.461Z,12.00
2023-03-28T20:38:40.606Z,13.73
2023-03-28T20:41:12.538Z,13.05
2023-03-28T20:43:40.995Z,13.85
2023-03-28T20:46:09.831Z,16.88
2023-03-28T20:48:37.040Z,15.00
2023-03-28T20:51:19.294Z,10.88
2023-03-28T20:54:00.623Z,11.35
2023-03-28T20:56:30.074Z,11.32
2023-03-28T20:58:58.931Z,14.63
2023-03-28T21:01:28.479Z,12.00
2023-03-28T21:03:58.302Z,11.80
2023-03-28T21:06:29.042Z,11.60
2023-03-28T21:09:01.949Z,10.95
2023-03-28T21:11:31.620Z,15.13
2023-03-28T21:14:00.480Z,11.40
2023-03-28T21:16:29.124Z,11.85
2023-03-28T21:18:56.274Z,11.82
2023-03-28T21:21:23.685Z,11.93
2023-03-28T21:23:53.262Z,9.95
2023-03-28T21:26:23.056Z,10.82
2023-03-28T21:28:52.469Z,10.32
2023-03-28T21:31:22.114Z,10.50
2023-03-28T21:33:49.213Z,10.75
2023-03-28T21:36:18.326Z,12.48
2023-03-28T21:38:46.866Z,13.52
2023-03-28T21:41:14.076Z,11.27
2023-03-28T21:43:41.214Z,15.65
2023-03-28T21:46:09.394Z,10.77
2023-03-28T21:48:36.895Z,10.07
2023-03-28T21:51:04.827Z,9.05
2023-03-28T21:53:37.226Z,9.93
2023-03-28T21:56:04.913Z,10.50
2023-03-28T21:58:33.469Z,10.55
2023-03-28T22:01:02.857Z,9.85
2023-03-28T22:03:31.061Z,9.77
2023-03-28T22:05:58.392Z,9.70
2023-03-28T22:08:25.639Z,9.80
2023-03-28T22:10:56.758Z,8.88
2023-03-28T22:13:24.229Z,10.00
2023-03-28T22:15:52.786Z,10.05
2023-03-28T22:18:20.185Z,8.40
2023-03-28T22:20:53.284Z,9.35
2023-03-28T22:23:24.594Z,9.15
2023-03-28T22:25:53.180Z,9.20
2023-03-28T22:28:24.611Z,9.30
2023-03-28T22:30:56.325Z,9.13
2023-03-28T22:33:25.405Z,11.48
2023-03-28T22:35:53.184Z,10.40
2023-03-28T22:38:20.408Z,8.93
2023-03-28T22:40:47.777Z,10.00
2023-03-28T22:43:15.601Z,9.60
2023-03-28T22:45:43.094Z,10.05
2023-03-28T22:48:16.246Z,9.32
2023-03-28T22:50:47.323Z,9.55
2023-03-28T22:53:15.233Z,9.90
2023-03-28T22:55:43.909Z,9.75
2023-03-28T22:58:11.863Z,17.17
2023-03-28T23:00:39.008Z,10.95
2023-03-28T23:03:08.064Z,10.23
2023-03-28T23:05:35.797Z,9.27
2023-03-28T23:08:02.991Z,12.50
2023-03-28T23:10:30.009Z,11.35
2023-03-28T23:12:56.984Z,9.80
2023-03-28T23:15:24.197Z,10.60
2023-03-28T23:17:52.213Z,11.02
2023-03-28T23:20:19.786Z,10.45
2023-03-28T23:22:48.650Z,9.77
2023-03-28T23:25:18.811Z,9.65
2023-03-28T23:27:46.637Z,8.88
2023-03-28T23:30:15.273Z,9.07
2023-03-28T23:32:42.411Z,9.43
2023-03-28T23:35:10.835Z,9.57
2023-03-28T23:37:38.546Z,12.40
2023-03-28T23:40:10.624Z,8.95
2023-03-28T23:42:39.155Z,9.75
2023-03-28T23:45:06.901Z,11.57
2023-03-28T23:47:33.967Z,10.23
2023-03-28T23:50:00.958Z,8.30
2023-03-28T23:52:27.938Z,10.23
2023-03-28T23:54:54.912Z,10.35
2023-03-28T23:57:25.343Z,8.60
2023-03-28T23:59:52.416Z,8.40
